sensor_id;sensor_type;location;lat;lon;timestamp;temperature;humidity
37844;DHT22;63793;57.632;18.292;2023-04-08T00:00:28;1.80;99.90
37844;DHT22;63793;57.632;18.292;2023-04-08T00:02:55;1.80;99.90
37844;DHT22;63793;57.632;18.292;2023-04-08T00:05:22;1.70;99.90
37844;DHT22;63793;57.632;18.292;2023-04-08T00:07:49;1.70;99.90
37844;DHT22;63793;57.632;18.292;2023-04-08T00:10:16;1.70;99.90
37844;DHT22;63793;57.632;18.292;2023-04-08T00:12:43;1.70;99.90
37844;DHT22;63793;57.632;18.292;2023-04-08T00:15:10;1.70;99.90
37844;DHT22;63793;57.632;18.292;2023-04-08T00:17:36;1.70;99.90
37844;DHT22;63793;57.632;18.292;2023-04-08T00:20:04;1.70;99.90
37844;DHT22;63793;57.632;18.292;2023-04-08T00:22:31;1.70;99.90
37844;DHT22;63793;57.632;18.292;2023-04-08T00:24:58;1.70;99.90
37844;DHT22;63793;57.632;18.292;2023-04-08T00:27:25;1.70;99.90
37844;DHT22;63793;57.632;18.292;2023-04-08T00:29:52;1.60;99.90
37844;DHT22;63793;57.632;18.292;2023-04-08T00:32:19;1.60;99.90
37844;DHT22;63793;57.632;18.292;2023-04-08T00:34:46;1.70;99.90
37844;DHT22;63793;57.632;18.292;2023-04-08T00:37:12;1.60;99.90
37844;DHT22;63793;57.632;18.292;2023-04-08T00:39:39;1.60;99.90
37844;DHT22;63793;57.632;18.292;2023-04-08T00:42:07;1.60;99.90
37844;DHT22;63793;57.632;18.292;2023-04-08T00:44:35;1.60;99.90
37844;DHT22;63793;57.632;18.292;2023-04-08T00:47:03;1.60;99.90
37844;DHT22;63793;57.632;18.292;2023-04-08T00:49:30;1.60;99.90
37844;DHT22;63793;57.632;18.292;2023-04-08T00:51:58;1.50;99.90
37844;DHT22;63793;57.632;18.292;2023-04-08T00:54:26;1.50;99.90
37844;DHT22;63793;57.632;18.292;2023-04-08T00:56:53;1.60;99.90
37844;DHT22;63793;57.632;18.292;2023-04-08T00:59:19;1.50;99.90
37844;DHT22;63793;57.632;18.292;2023-04-08T01:07:27;1.60;99.90
37844;DHT22;63793;57.632;18.292;2023-04-08T01:09:58;1.60;99.90
37844;DHT22;63793;57.632;18.292;2023-04-08T01:12:29;1.60;99.90
37844;DHT22;63793;57.632;18.292;2023-04-08T01:15:00;1.60;99.90
37844;DHT22;63793;57.632;18.292;2023-04-08T01:17:29;1.60;99.90
37844;DHT22;63793;57.632;18.292;2023-04-08T01:19:58;1.60;99.90
37844;DHT22;63793;57.632;18.292;2023-04-08T01:25:13;1.60;99.90
37844;DHT22;63793;57.632;18.292;2023-04-08T01:27:42;1.60;99.90
37844;DHT22;63793;57.632;18.292;2023-04-08T01:30:10;1.60;99.90
37844;DHT22;63793;57.632;18.292;2023-04-08T01:32:38;1.60;99.90
37844;DHT22;63793;57.632;18.292;2023-04-08T01:35:07;1.60;99.90
37844;DHT22;63793;57.632;18.292;2023-04-08T01:37:35;1.60;99.90
37844;DHT22;63793;57.632;18.292;2023-04-08T01:40:04;1.70;99.90
37844;DHT22;63793;57.632;18.292;2023-04-08T01:42:37;1.60;99.90
37844;DHT22;63793;57.632;18.292;2023-04-08T01:45:05;1.60;99.90
37844;DHT22;63793;57.632;18.292;2023-04-08T01:47:34;1.60;99.90
37844;DHT22;63793;57.632;18.292;2023-04-08T01:50:04;1.60;99.90
37844;DHT22;63793;57.632;18.292;2023-04-08T01:52:34;1.60;99.90
37844;DHT22;63793;57.632;18.292;2023-04-08T01:55:01;1.50;99.90
37844;DHT22;63793;57.632;18.292;2023-04-08T01:57:31;1.50;99.90
37844;DHT22;63793;57.632;18.292;2023-04-08T02:00:05;1.50;99.90
37844;DHT22;63793;57.632;18.292;2023-04-08T02:02:46;1.50;99.90
37844;DHT22;63793;57.632;18.292;2023-04-08T02:05:14;1.50;99.90
37844;DHT22;63793;57.632;18.292;2023-04-08T02:07:41;1.50;99.90
37844;DHT22;63793;57.632;18.292;2023-04-08T02:10:08;1.50;99.90
37844;DHT22;63793;57.632;18.292;2023-04-08T02:12:35;1.50;99.90
37844;DHT22;63793;57.632;18.292;2023-04-08T02:15:07;1.40;99.90
37844;DHT22;63793;57.632;18.292;2023-04-08T02:17:58;1.40;99.90
37844;DHT22;63793;57.632;18.292;2023-04-08T02:20:36;1.40;99.90
37844;DHT22;63793;57.632;18.292;2023-04-08T02:23:13;1.40;99.90
37844;DHT22;63793;57.632;18.292;2023-04-08T02:25:44;1.40;99.90
37844;DHT22;63793;57.632;18.292;2023-04-08T02:28:11;1.30;99.90
37844;DHT22;63793;57.632;18.292;2023-04-08T02:30:49;1.30;99.90
37844;DHT22;63793;57.632;18.292;2023-04-08T02:33:19;1.40;99.90
37844;DHT22;63793;57.632;18.292;2023-04-08T02:35:50;1.30;99.90
37844;DHT22;63793;57.632;18.292;2023-04-08T02:38:21;1.30;99.90
37844;DHT22;63793;57.632;18.292;2023-04-08T02:40:50;1.30;99.90
37844;DHT22;63793;57.632;18.292;2023-04-08T02:43:17;1.30;99.90
37844;DHT22;63793;57.632;18.292;2023-04-08T02:45:44;1.30;99.90
37844;DHT22;63793;57.632;18.292;2023-04-08T02:48:11;1.30;99.90
37844;DHT22;63793;57.632;18.292;2023-04-08T02:50:38;1.30;99.90
37844;DHT22;63793;57.632;18.292;2023-04-08T02:53:08;1.30;99.90
37844;DHT22;63793;57.632;18.292;2023-04-08T02:55:36;1.30;99.90
37844;DHT22;63793;57.632;18.292;2023-04-08T02:58:03;1.30;99.90
37844;DHT22;63793;57.632;18.292;2023-04-08T03:00:30;1.30;99.90
37844;DHT22;63793;57.632;18.292;2023-04-08T03:02:57;1.30;99.90
37844;DHT22;63793;57.632;18.292;2023-04-08T03:05:25;1.30;99.90
37844;DHT22;63793;57.632;18.292;2023-04-08T03:07:52;1.30;99.90
37844;DHT22;63793;57.632;18.292;2023-04-08T03:10:19;1.30;99.90
37844;DHT22;63793;57.632;18.292;2023-04-08T03:12:46;1.30;99.90
37844;DHT22;63793;57.632;18.292;2023-04-08T03:15:13;1.30;99.90
37844;DHT22;63793;57.632;18.292;2023-04-08T03:17:39;1.30;99.90
37844;DHT22;63793;57.632;18.292;2023-04-08T03:20:07;1.30;99.90
37844;DHT22;63793;57.632;18.292;2023-04-08T03:22:35;1.30;99.90
37844;DHT22;63793;57.632;18.292;2023-04-08T03:25:02;1.30;99.90
37844;DHT22;63793;57.632;18.292;2023-04-08T03:27:30;1.30;99.90
37844;DHT22;63793;57.632;18.292;2023-04-08T03:29:56;1.30;99.90
37844;DHT22;63793;57.632;18.292;2023-04-08T03:32:24;1.30;99.90
37844;DHT22;63793;57.632;18.292;2023-04-08T03:34:51;1.30;99.90
37844;DHT22;63793;57.632;18.292;2023-04-08T03:37:18;1.30;99.90
37844;DHT22;63793;57.632;18.292;2023-04-08T03:39:45;1.30;99.90
37844;DHT22;63793;57.632;18.292;2023-04-08T03:42:12;1.20;99.90
37844;DHT22;63793;57.632;18.292;2023-04-08T03:44:39;1.20;99.90
37844;DHT22;63793;57.632;18.292;2023-04-08T03:47:06;1.30;99.90
37844;DHT22;63793;57.632;18.292;2023-04-08T03:49:33;1.20;99.90
37844;DHT22;63793;57.632;18.292;2023-04-08T03:51:59;1.20;99.90
37844;DHT22;63793;57.632;18.292;2023-04-08T03:54:26;1.20;99.90
37844;DHT22;63793;57.632;18.292;2023-04-08T03:56:53;1.20;99.90
37844;DHT22;63793;57.632;18.292;2023-04-08T03:59:20;1.20;99.90
37844;DHT22;63793;57.632;18.292;2023-04-08T04:01:47;1.20;99.90
37844;DHT22;63793;57.632;18.292;2023-04-08T04:04:14;1.20;99.90
37844;DHT22;63793;57.632;18.292;2023-04-08T04:06:42;1.20;99.90
37844;DHT22;63793;57.632;18.292;2023-04-08T04:09:08;1.20;99.90
37844;DHT22;63793;57.632;18.292;2023-04-08T04:11:36;1.20;99.90
37844;DHT22;63793;57.632;18.292;2023-04-08T04:14:03;1.20;99.90
37844;DHT22;63793;57.632;18.292;2023-04-08T04:16:30;1.20;99.90
37844;DHT22;63793;57.632;18.292;2023-04-08T04:18:58;1.20;99.90
37844;DHT22;63793;57.632;18.292;2023-04-08T04:21:26;1.20;99.90
37844;DHT22;63793;57.632;18.292;2023-04-08T04:23:53;1.20;99.90
37844;DHT22;63793;57.632;18.292;2023-04-08T04:26:20;1.20;99.90
37844;DHT22;63793;57.632;18.292;2023-04-08T04:28:46;1.30;99.90
37844;DHT22;63793;57.632;18.292;2023-04-08T04:31:32;1.30;99.90
37844;DHT22;63793;57.632;18.292;2023-04-08T04:33:59;1.30;99.90
37844;DHT22;63793;57.632;18.292;2023-04-08T04:36:26;1.40;99.90
37844;DHT22;63793;57.632;18.292;2023-04-08T04:38:53;1.40;99.90
37844;DHT22;63793;57.632;18.292;2023-04-08T04:41:20;1.40;99.90
37844;DHT22;63793;57.632;18.292;2023-04-08T04:43:47;1.50;99.90
37844;DHT22;63793;57.632;18.292;2023-04-08T04:46:14;1.50;99.90
37844;DHT22;63793;57.632;18.292;2023-04-08T04:48:41;1.50;99.90
37844;DHT22;63793;57.632;18.292;2023-04-08T04:51:08;1.50;99.90
37844;DHT22;63793;57.632;18.292;2023-04-08T04:53:35;1.60;99.90
37844;DHT22;63793;57.632;18.292;2023-04-08T04:56:02;1.60;99.90
37844;DHT22;63793;57.632;18.292;2023-04-08T04:58:29;1.60;99.90
37844;DHT22;63793;57.632;18.292;2023-04-08T05:00:56;1.60;99.90
37844;DHT22;63793;57.632;18.292;2023-04-08T05:03:23;1.70;99.90
37844;DHT22;63793;57.632;18.292;2023-04-08T05:05:51;1.70;99.90
37844;DHT22;63793;57.632;18.292;2023-04-08T05:08:19;1.70;99.90
37844;DHT22;63793;57.632;18.292;2023-04-08T05:10:46;1.70;99.90
37844;DHT22;63793;57.632;18.292;2023-04-08T05:13:16;1.80;99.90
37844;DHT22;63793;57.632;18.292;2023-04-08T05:15:43;1.80;99.90
37844;DHT22;63793;57.632;18.292;2023-04-08T05:18:13;1.80;99.90
37844;DHT22;63793;57.632;18.292;2023-04-08T05:20:40;1.80;99.90
37844;DHT22;63793;57.632;18.292;2023-04-08T05:23:07;1.90;99.90
37844;DHT22;63793;57.632;18.292;2023-04-08T05:25:34;1.90;99.90
37844;DHT22;63793;57.632;18.292;2023-04-08T05:28:02;2.00;99.90
37844;DHT22;63793;57.632;18.292;2023-04-08T05:30:29;2.00;99.90
37844;DHT22;63793;57.632;18.292;2023-04-08T05:32:56;2.10;99.90
37844;DHT22;63793;57.632;18.292;2023-04-08T05:35:26;2.20;99.90
37844;DHT22;63793;57.632;18.292;2023-04-08T05:37:53;2.20;99.90
37844;DHT22;63793;57.632;18.292;2023-04-08T05:40:20;2.20;99.90
37844;DHT22;63793;57.632;18.292;2023-04-08T05:42:47;2.30;99.90
37844;DHT22;63793;57.632;18.292;2023-04-08T05:45:14;2.40;99.90
37844;DHT22;63793;57.632;18.292;2023-04-08T05:47:41;2.50;99.90
37844;DHT22;63793;57.632;18.292;2023-04-08T05:50:09;2.50;99.90
37844;DHT22;63793;57.632;18.292;2023-04-08T05:52:40;2.50;99.90
37844;DHT22;63793;57.632;18.292;2023-04-08T05:55:07;2.60;99.90
37844;DHT22;63793;57.632;18.292;2023-04-08T05:57:34;2.70;99.90
37844;DHT22;63793;57.632;18.292;2023-04-08T06:00:05;2.80;99.90
37844;DHT22;63793;57.632;18.292;2023-04-08T06:02:35;2.90;99.90
37844;DHT22;63793;57.632;18.292;2023-04-08T06:05:03;2.90;99.90
37844;DHT22;63793;57.632;18.292;2023-04-08T06:07:31;3.00;99.90
37844;DHT22;63793;57.632;18.292;2023-04-08T06:09:58;3.10;99.90
37844;DHT22;63793;57.632;18.292;2023-04-08T06:12:25;3.10;99.90
37844;DHT22;63793;57.632;18.292;2023-04-08T06:14:55;3.20;99.90
37844;DHT22;63793;57.632;18.292;2023-04-08T06:17:22;3.20;99.90
37844;DHT22;63793;57.632;18.292;2023-04-08T06:19:49;3.30;99.90
37844;DHT22;63793;57.632;18.292;2023-04-08T06:22:16;3.40;99.90
37844;DHT22;63793;57.632;18.292;2023-04-08T06:24:43;3.50;99.90
37844;DHT22;63793;57.632;18.292;2023-04-08T06:27:12;3.50;99.90
37844;DHT22;63793;57.632;18.292;2023-04-08T06:29:39;3.60;99.90
37844;DHT22;63793;57.632;18.292;2023-04-08T06:32:08;3.70;99.90
37844;DHT22;63793;57.632;18.292;2023-04-08T06:34:36;3.70;99.90
37844;DHT22;63793;57.632;18.292;2023-04-08T06:37:03;3.80;99.90
37844;DHT22;63793;57.632;18.292;2023-04-08T06:39:30;3.90;99.90
37844;DHT22;63793;57.632;18.292;2023-04-08T06:41:56;4.00;99.90
37844;DHT22;63793;57.632;18.292;2023-04-08T06:44:34;4.10;99.90
37844;DHT22;63793;57.632;18.292;2023-04-08T06:47:01;4.20;99.90
37844;DHT22;63793;57.632;18.292;2023-04-08T06:49:27;4.30;99.90
37844;DHT22;63793;57.632;18.292;2023-04-08T06:51:55;4.40;99.90
37844;DHT22;63793;57.632;18.292;2023-04-08T06:54:22;4.40;99.90
37844;DHT22;63793;57.632;18.292;2023-04-08T06:56:49;4.50;99.90
37844;DHT22;63793;57.632;18.292;2023-04-08T06:59:16;4.60;99.90
37844;DHT22;63793;57.632;18.292;2023-04-08T07:01:43;4.70;99.90
37844;DHT22;63793;57.632;18.292;2023-04-08T07:04:10;4.80;99.90
37844;DHT22;63793;57.632;18.292;2023-04-08T07:06:37;4.90;99.90
37844;DHT22;63793;57.632;18.292;2023-04-08T07:09:04;5.00;99.90
37844;DHT22;63793;57.632;18.292;2023-04-08T07:11:31;5.10;99.90
37844;DHT22;63793;57.632;18.292;2023-04-08T07:13:57;5.20;99.90
37844;DHT22;63793;57.632;18.292;2023-04-08T07:16:24;5.20;99.90
37844;DHT22;63793;57.632;18.292;2023-04-08T07:18:51;5.40;99.90
37844;DHT22;63793;57.632;18.292;2023-04-08T07:21:19;5.50;99.90
37844;DHT22;63793;57.632;18.292;2023-04-08T07:23:46;5.50;99.90
37844;DHT22;63793;57.632;18.292;2023-04-08T07:26:12;5.60;99.90
37844;DHT22;63793;57.632;18.292;2023-04-08T07:28:40;5.70;99.90
37844;DHT22;63793;57.632;18.292;2023-04-08T07:31:09;5.60;99.90
37844;DHT22;63793;57.632;18.292;2023-04-08T07:33:36;5.60;99.90
37844;DHT22;63793;57.632;18.292;2023-04-08T07:36:03;5.60;99.90
37844;DHT22;63793;57.632;18.292;2023-04-08T07:38:30;5.60;99.90
37844;DHT22;63793;57.632;18.292;2023-04-08T07:40:57;5.80;99.90
37844;DHT22;63793;57.632;18.292;2023-04-08T07:43:24;5.90;99.90
37844;DHT22;63793;57.632;18.292;2023-04-08T07:45:51;6.10;99.90
37844;DHT22;63793;57.632;18.292;2023-04-08T07:48:18;6.20;99.90
37844;DHT22;63793;57.632;18.292;2023-04-08T07:50:44;6.30;99.90
37844;DHT22;63793;57.632;18.292;2023-04-08T07:53:33;6.50;99.90
37844;DHT22;63793;57.632;18.292;2023-04-08T07:56:00;6.60;99.90
37844;DHT22;63793;57.632;18.292;2023-04-08T07:58:27;6.70;99.90
37844;DHT22;63793;57.632;18.292;2023-04-08T08:00:54;6.90;99.90
37844;DHT22;63793;57.632;18.292;2023-04-08T08:03:23;7.00;99.90
37844;DHT22;63793;57.632;18.292;2023-04-08T08:05:50;7.10;99.90
37844;DHT22;63793;57.632;18.292;2023-04-08T08:08:17;7.20;99.90
37844;DHT22;63793;57.632;18.292;2023-04-08T08:10:44;7.30;99.90
37844;DHT22;63793;57.632;18.292;2023-04-08T08:13:10;7.30;99.90
37844;DHT22;63793;57.632;18.292;2023-04-08T08:15:40;7.40;99.90
37844;DHT22;63793;57.632;18.292;2023-04-08T08:18:07;7.30;99.90
37844;DHT22;63793;57.632;18.292;2023-04-08T08:20:34;6.90;99.90
37844;DHT22;63793;57.632;18.292;2023-04-08T08:23:02;6.80;99.90
37844;DHT22;63793;57.632;18.292;2023-04-08T08:25:28;6.90;99.90
37844;DHT22;63793;57.632;18.292;2023-04-08T08:27:55;6.90;99.90
37844;DHT22;63793;57.632;18.292;2023-04-08T08:30:22;7.00;99.90
37844;DHT22;63793;57.632;18.292;2023-04-08T08:32:49;7.00;99.90
37844;DHT22;63793;57.632;18.292;2023-04-08T08:35:17;7.00;99.90
37844;DHT22;63793;57.632;18.292;2023-04-08T08:37:44;6.90;99.90
37844;DHT22;63793;57.632;18.292;2023-04-08T08:40:13;7.00;99.90
37844;DHT22;63793;57.632;18.292;2023-04-08T08:42:40;7.00;99.90
37844;DHT22;63793;57.632;18.292;2023-04-08T08:45:07;7.00;99.90
37844;DHT22;63793;57.632;18.292;2023-04-08T08:47:34;7.00;99.90
37844;DHT22;63793;57.632;18.292;2023-04-08T08:50:01;6.70;99.90
37844;DHT22;63793;57.632;18.292;2023-04-08T08:52:28;6.70;99.90
37844;DHT22;63793;57.632;18.292;2023-04-08T08:54:57;6.50;99.90
37844;DHT22;63793;57.632;18.292;2023-04-08T08:57:24;6.50;99.90
37844;DHT22;63793;57.632;18.292;2023-04-08T08:59:52;6.50;99.90
37844;DHT22;63793;57.632;18.292;2023-04-08T09:02:27;6.40;99.90
37844;DHT22;63793;57.632;18.292;2023-04-08T09:04:59;6.40;99.90
37844;DHT22;63793;57.632;18.292;2023-04-08T09:07:28;6.30;99.90
37844;DHT22;63793;57.632;18.292;2023-04-08T09:09:57;6.30;99.90
37844;DHT22;63793;57.632;18.292;2023-04-08T09:12:25;6.30;99.90
37844;DHT22;63793;57.632;18.292;2023-04-08T09:15:04;6.40;99.90
37844;DHT22;63793;57.632;18.292;2023-04-08T09:17:38;6.40;99.90
37844;DHT22;63793;57.632;18.292;2023-04-08T09:20:07;6.40;99.90
37844;DHT22;63793;57.632;18.292;2023-04-08T09:22:56;6.40;99.90
37844;DHT22;63793;57.632;18.292;2023-04-08T09:25:28;6.50;99.90
37844;DHT22;63793;57.632;18.292;2023-04-08T09:27:56;6.40;99.90
37844;DHT22;63793;57.632;18.292;2023-04-08T09:30:24;6.30;99.90
37844;DHT22;63793;57.632;18.292;2023-04-08T09:32:57;6.40;99.90
37844;DHT22;63793;57.632;18.292;2023-04-08T09:35:25;6.50;99.90
37844;DHT22;63793;57.632;18.292;2023-04-08T09:37:52;6.50;99.90
37844;DHT22;63793;57.632;18.292;2023-04-08T09:40:19;6.40;99.90
37844;DHT22;63793;57.632;18.292;2023-04-08T09:42:47;6.50;99.90
37844;DHT22;63793;57.632;18.292;2023-04-08T09:45:17;6.40;99.90
37844;DHT22;63793;57.632;18.292;2023-04-08T09:47:55;6.50;99.90
37844;DHT22;63793;57.632;18.292;2023-04-08T09:50:26;6.30;99.90
37844;DHT22;63793;57.632;18.292;2023-04-08T09:53:08;6.30;99.90
37844;DHT22;63793;57.632;18.292;2023-04-08T09:55:36;6.40;99.90
37844;DHT22;63793;57.632;18.292;2023-04-08T09:58:12;6.50;99.90
37844;DHT22;63793;57.632;18.292;2023-04-08T10:00:46;6.50;99.90
37844;DHT22;63793;57.632;18.292;2023-04-08T10:05:47;6.50;99.90
37844;DHT22;63793;57.632;18.292;2023-04-08T10:08:14;6.50;99.90
37844;DHT22;63793;57.632;18.292;2023-04-08T10:10:42;6.50;99.90
37844;DHT22;63793;57.632;18.292;2023-04-08T10:13:10;6.40;99.90
37844;DHT22;63793;57.632;18.292;2023-04-08T10:15:37;6.40;99.90
37844;DHT22;63793;57.632;18.292;2023-04-08T10:25:37;6.60;99.90
37844;DHT22;63793;57.632;18.292;2023-04-08T10:30:46;6.60;99.90
37844;DHT22;63793;57.632;18.292;2023-04-08T10:38:38;6.50;99.90
37844;DHT22;63793;57.632;18.292;2023-04-08T10:41:05;6.50;99.90
37844;DHT22;63793;57.632;18.292;2023-04-08T10:43:33;6.50;99.90
37844;DHT22;63793;57.632;18.292;2023-04-08T10:46:00;6.50;99.90
37844;DHT22;63793;57.632;18.292;2023-04-08T10:48:27;6.50;99.90
37844;DHT22;63793;57.632;18.292;2023-04-08T10:51:02;6.60;99.90
37844;DHT22;63793;57.632;18.292;2023-04-08T10:53:37;6.70;99.90
37844;DHT22;63793;57.632;18.292;2023-04-08T10:56:11;6.80;99.90
37844;DHT22;63793;57.632;18.292;2023-04-08T10:58:48;6.70;99.90
37844;DHT22;63793;57.632;18.292;2023-04-08T11:01:16;6.60;99.90
37844;DHT22;63793;57.632;18.292;2023-04-08T11:03:43;6.60;99.90
37844;DHT22;63793;57.632;18.292;2023-04-08T11:06:11;6.60;99.90
37844;DHT22;63793;57.632;18.292;2023-04-08T11:08:38;6.50;99.90
37844;DHT22;63793;57.632;18.292;2023-04-08T11:11:06;6.40;99.90
37844;DHT22;63793;57.632;18.292;2023-04-08T11:13:39;6.30;99.90
37844;DHT22;63793;57.632;18.292;2023-04-08T11:16:18;6.20;99.90
37844;DHT22;63793;57.632;18.292;2023-04-08T11:18:46;6.10;99.90
37844;DHT22;63793;57.632;18.292;2023-04-08T11:21:14;6.00;99.90
37844;DHT22;63793;57.632;18.292;2023-04-08T11:23:42;6.10;99.90
37844;DHT22;63793;57.632;18.292;2023-04-08T11:26:10;6.10;99.90
37844;DHT22;63793;57.632;18.292;2023-04-08T11:28:37;6.00;99.90
37844;DHT22;63793;57.632;18.292;2023-04-08T11:31:04;6.00;99.90
37844;DHT22;63793;57.632;18.292;2023-04-08T11:33:32;6.00;99.90
37844;DHT22;63793;57.632;18.292;2023-04-08T11:36:01;6.00;99.90
37844;DHT22;63793;57.632;18.292;2023-04-08T11:38:31;5.90;99.90
37844;DHT22;63793;57.632;18.292;2023-04-08T11:40:59;5.90;99.90
37844;DHT22;63793;57.632;18.292;2023-04-08T11:43:26;5.90;99.90
37844;DHT22;63793;57.632;18.292;2023-04-08T11:45:54;5.90;99.90
37844;DHT22;63793;57.632;18.292;2023-04-08T11:48:21;5.90;99.90
37844;DHT22;63793;57.632;18.292;2023-04-08T11:51:02;5.90;99.90
37844;DHT22;63793;57.632;18.292;2023-04-08T11:53:30;6.00;99.90
37844;DHT22;63793;57.632;18.292;2023-04-08T11:55:57;5.90;99.90
37844;DHT22;63793;57.632;18.292;2023-04-08T11:58:24;6.00;99.90
37844;DHT22;63793;57.632;18.292;2023-04-08T12:00:50;5.90;99.90
37844;DHT22;63793;57.632;18.292;2023-04-08T12:03:17;5.90;99.90
37844;DHT22;63793;57.632;18.292;2023-04-08T12:05:44;6.00;99.90
37844;DHT22;63793;57.632;18.292;2023-04-08T12:08:12;6.10;99.90
37844;DHT22;63793;57.632;18.292;2023-04-08T12:10:39;6.20;99.90
37844;DHT22;63793;57.632;18.292;2023-04-08T12:13:06;6.20;99.90
37844;DHT22;63793;57.632;18.292;2023-04-08T12:15:33;6.20;99.90
37844;DHT22;63793;57.632;18.292;2023-04-08T12:17:59;6.20;99.90
37844;DHT22;63793;57.632;18.292;2023-04-08T12:20:26;6.20;99.90
37844;DHT22;63793;57.632;18.292;2023-04-08T12:22:53;6.20;99.90
37844;DHT22;63793;57.632;18.292;2023-04-08T12:25:20;6.20;99.90
37844;DHT22;63793;57.632;18.292;2023-04-08T12:27:47;6.20;99.90
37844;DHT22;63793;57.632;18.292;2023-04-08T12:30:14;6.10;99.90
37844;DHT22;63793;57.632;18.292;2023-04-08T12:32:42;6.10;99.90
37844;DHT22;63793;57.632;18.292;2023-04-08T12:35:11;6.10;99.90
37844;DHT22;63793;57.632;18.292;2023-04-08T12:37:38;6.10;99.90
37844;DHT22;63793;57.632;18.292;2023-04-08T12:40:05;6.20;99.90
37844;DHT22;63793;57.632;18.292;2023-04-08T12:42:33;6.30;99.90
37844;DHT22;63793;57.632;18.292;2023-04-08T12:45:00;6.30;99.90
37844;DHT22;63793;57.632;18.292;2023-04-08T12:47:27;6.30;99.90
37844;DHT22;63793;57.632;18.292;2023-04-08T12:49:54;6.40;99.90
37844;DHT22;63793;57.632;18.292;2023-04-08T12:52:21;6.30;99.90
37844;DHT22;63793;57.632;18.292;2023-04-08T12:54:48;6.30;99.90
37844;DHT22;63793;57.632;18.292;2023-04-08T12:57:15;6.50;99.90
37844;DHT22;63793;57.632;18.292;2023-04-08T12:59:43;6.40;99.90
37844;DHT22;63793;57.632;18.292;2023-04-08T13:02:09;6.50;99.90
37844;DHT22;63793;57.632;18.292;2023-04-08T13:04:36;6.50;99.90
37844;DHT22;63793;57.632;18.292;2023-04-08T13:07:03;6.40;99.90
37844;DHT22;63793;57.632;18.292;2023-04-08T13:09:30;6.40;99.90
37844;DHT22;63793;57.632;18.292;2023-04-08T13:11:57;6.50;99.90
37844;DHT22;63793;57.632;18.292;2023-04-08T13:14:25;6.50;99.90
37844;DHT22;63793;57.632;18.292;2023-04-08T13:16:53;6.60;99.90
37844;DHT22;63793;57.632;18.292;2023-04-08T13:19:20;6.40;99.90
37844;DHT22;63793;57.632;18.292;2023-04-08T13:21:47;6.50;99.90
37844;DHT22;63793;57.632;18.292;2023-04-08T13:24:14;6.50;99.90
37844;DHT22;63793;57.632;18.292;2023-04-08T13:26:41;6.50;99.90
37844;DHT22;63793;57.632;18.292;2023-04-08T13:29:07;6.60;99.90
37844;DHT22;63793;57.632;18.292;2023-04-08T13:31:34;6.50;99.90
37844;DHT22;63793;57.632;18.292;2023-04-08T13:34:01;6.50;99.90
37844;DHT22;63793;57.632;18.292;2023-04-08T13:36:28;6.50;99.90
37844;DHT22;63793;57.632;18.292;2023-04-08T13:38:55;6.50;99.90
37844;DHT22;63793;57.632;18.292;2023-04-08T13:41:22;6.60;99.90
37844;DHT22;63793;57.632;18.292;2023-04-08T13:43:51;6.50;99.90
37844;DHT22;63793;57.632;18.292;2023-04-08T13:46:18;6.60;99.90
37844;DHT22;63793;57.632;18.292;2023-04-08T13:48:44;6.80;99.90
37844;DHT22;63793;57.632;18.292;2023-04-08T13:51:12;6.70;99.90
37844;DHT22;63793;57.632;18.292;2023-04-08T13:53:39;6.60;99.90
37844;DHT22;63793;57.632;18.292;2023-04-08T13:56:06;6.60;99.90
37844;DHT22;63793;57.632;18.292;2023-04-08T13:58:33;6.60;99.90
37844;DHT22;63793;57.632;18.292;2023-04-08T14:01:00;6.60;99.90
37844;DHT22;63793;57.632;18.292;2023-04-08T14:03:28;6.60;99.90
37844;DHT22;63793;57.632;18.292;2023-04-08T14:05:55;6.70;99.90
37844;DHT22;63793;57.632;18.292;2023-04-08T14:08:24;6.90;99.90
37844;DHT22;63793;57.632;18.292;2023-04-08T14:10:52;6.90;99.90
37844;DHT22;63793;57.632;18.292;2023-04-08T14:13:21;7.00;99.90
37844;DHT22;63793;57.632;18.292;2023-04-08T14:15:48;7.00;99.90
37844;DHT22;63793;57.632;18.292;2023-04-08T14:18:15;7.00;99.90
37844;DHT22;63793;57.632;18.292;2023-04-08T14:20:45;6.90;99.90
37844;DHT22;63793;57.632;18.292;2023-04-08T14:23:12;7.00;99.90
37844;DHT22;63793;57.632;18.292;2023-04-08T14:25:39;6.90;99.90
37844;DHT22;63793;57.632;18.292;2023-04-08T14:28:06;7.10;99.90
37844;DHT22;63793;57.632;18.292;2023-04-08T14:30:36;7.30;99.90
37844;DHT22;63793;57.632;18.292;2023-04-08T14:33:03;7.40;99.90
37844;DHT22;63793;57.632;18.292;2023-04-08T14:35:33;7.30;99.90
37844;DHT22;63793;57.632;18.292;2023-04-08T14:38:00;7.40;99.90
37844;DHT22;63793;57.632;18.292;2023-04-08T14:40:27;7.30;99.90
37844;DHT22;63793;57.632;18.292;2023-04-08T14:42:54;7.50;99.90
37844;DHT22;63793;57.632;18.292;2023-04-08T14:45:21;7.50;99.90
37844;DHT22;63793;57.632;18.292;2023-04-08T14:47:48;7.50;99.90
37844;DHT22;63793;57.632;18.292;2023-04-08T14:50:15;7.50;99.90
37844;DHT22;63793;57.632;18.292;2023-04-08T14:52:42;7.70;99.90
37844;DHT22;63793;57.632;18.292;2023-04-08T14:55:11;7.90;99.90
37844;DHT22;63793;57.632;18.292;2023-04-08T14:57:37;8.00;99.90
37844;DHT22;63793;57.632;18.292;2023-04-08T15:00:05;8.10;99.90
37844;DHT22;63793;57.632;18.292;2023-04-08T15:02:33;8.20;99.90
37844;DHT22;63793;57.632;18.292;2023-04-08T15:05:00;8.00;99.90
37844;DHT22;63793;57.632;18.292;2023-04-08T15:07:27;7.70;99.90
37844;DHT22;63793;57.632;18.292;2023-04-08T15:09:54;7.30;99.90
37844;DHT22;63793;57.632;18.292;2023-04-08T15:12:22;7.50;99.90
37844;DHT22;63793;57.632;18.292;2023-04-08T15:14:50;7.50;99.90
37844;DHT22;63793;57.632;18.292;2023-04-08T15:17:17;7.70;99.90
37844;DHT22;63793;57.632;18.292;2023-04-08T15:19:43;7.60;99.90
37844;DHT22;63793;57.632;18.292;2023-04-08T15:22:10;7.80;99.90
37844;DHT22;63793;57.632;18.292;2023-04-08T15:24:38;7.80;99.90
37844;DHT22;63793;57.632;18.292;2023-04-08T15:27:05;7.80;99.90
37844;DHT22;63793;57.632;18.292;2023-04-08T15:29:32;7.70;99.90
37844;DHT22;63793;57.632;18.292;2023-04-08T15:31:58;7.60;99.90
37844;DHT22;63793;57.632;18.292;2023-04-08T15:34:25;7.40;99.90
37844;DHT22;63793;57.632;18.292;2023-04-08T15:36:53;7.60;99.90
37844;DHT22;63793;57.632;18.292;2023-04-08T15:39:22;7.70;99.90
37844;DHT22;63793;57.632;18.292;2023-04-08T15:41:49;7.70;99.90
37844;DHT22;63793;57.632;18.292;2023-04-08T15:44:16;7.60;99.90
37844;DHT22;63793;57.632;18.292;2023-04-08T15:46:43;7.80;99.90
37844;DHT22;63793;57.632;18.292;2023-04-08T15:49:10;7.90;99.90
37844;DHT22;63793;57.632;18.292;2023-04-08T15:51:36;8.00;99.90
37844;DHT22;63793;57.632;18.292;2023-04-08T15:54:03;8.10;99.90
37844;DHT22;63793;57.632;18.292;2023-04-08T15:56:30;8.10;99.90
37844;DHT22;63793;57.632;18.292;2023-04-08T15:58:57;8.10;99.90
37844;DHT22;63793;57.632;18.292;2023-04-08T16:01:24;8.00;99.90